METAR Data
IDs: Format: Raw Decoded Include TAF

Data at: 2027 UTC 21 Sep 2021

KLIT 211953Z 32007KT 10SM BKN055 OVC150 24/21 A3003 RMK AO2 SLP171 T02390206
KLIT 211917Z COR 32005KT 10SM FEW010 SCT055 SCT110 OVC150 24/21 A3005 RMK AO2 T02390211
KLIT 211853Z 36003KT 10SM SCT010 OVC110 23/21 A3006 RMK AO2 RAE15 SLP179 BINOVC P0001 T02330206
KLIT 211820Z 04004KT 10SM SCT012 SCT055 OVC120 23/21 A3006 RMK AO2 RAE15 BINOVC P0001 T02330211
KLIT 211753Z 09007KT 7SM -RA FEW010 BKN055 OVC120 22/21 A3006 RMK AO2 TSE33 SLP180 TS MOV SE CB DSNT NE-SE MOV SE P0007 60022 T02170206 10278 20217 50015
KLIT 211733Z 09005KT 7SM -RA FEW010 BKN055 OVC120 22/21 A3007 RMK AO2 TSE33 TS MOV SE CB DSNT NE-SE MOV SE P0004 T02170206
KLIT 211716Z 09003KT 7SM -TSRA FEW010 BKN055CB OVC120 22/20 A3009 RMK AO2 OCNL LTGIC NE-SE TS NE-SE MOV SE P0003 T02220200
KLIT 211657Z 33003KT 3SM TSRA BKN030 OVC055CB 22/20 A3011 RMK AO2 OCNL LTGICCG OHD-NE-SE-SW TS OHD-NE-SE-SW MOV SE P0003 T02170200
KLIT 211653Z 05007KT 1 1/2SM +TSRA BKN030 OVC055CB 22/20 A3011 RMK AO2 RAB17 TSB09 SLP196 WSHFT 39 OCNL LTGICCG ALQDS TS ALQDS MOV SE P0015 T02170200
KLIT 211639Z 33010G15KT 3SM TSRA SCT030 OVC055CB 23/20 A3010 RMK AO2 RAB17 TSB09 WSHFT OCNL LTGICCG SW-OHD-NE TS SW-OH-NE MOV SE P0001 T02330200
KLIT 211609Z 04009KT 10SM TS FEW040 OVC055CB 27/19 A3007 RMK AO2 TSB09 OCNL LTGICCG SW-NW TS SW-NW MOV SE T02670189
KLIT 211553Z 05009KT 10SM FEW040 OVC060 27/18 A3005 RMK AO2 SLP175 T02720183
KLIT 211453Z 09009KT 10SM FEW040 SCT065 BKN120 27/19 A3002 RMK AO2 SLP164 T02670189 53006
KLIT 211353Z 05008KT 10SM SCT065 BKN120 26/22 A3002 RMK AO2 SLP166 T02560217
KLIT 211253Z 13005KT 7SM SCT065 OVC120 23/22 A2998 RMK AO2 SLP153 CB MOVD E T02330217
KLIT 211153Z 36003KT 8SM SCT038 BKN065 BKN120 BKN200 24/22 A3000 RMK AO2 SLP158 CB DSNT E-SE AND NW-N MOV E T02390217 10239 20222 53027
KLIT 211053Z 35005KT 8SM SCT055 BKN140 OVC200 23/22 A2997 RMK AO2 SLP149 T02330217
KLIT 210953Z 00000KT 9SM SCT060 BKN140 BKN200 23/21 A2994 RMK AO2 SLP137 T02280211
KLIT 210853Z 11003KT 9SM FEW060 SCT170 23/21 A2992 RMK AO2 SLP131 T02280211 50000
KLIT 210753Z 16003KT 9SM SCT170 22/21 A2992 RMK AO2 SLP132 T02220211
KLIT 210653Z 00000KT 9SM FEW130 23/21 A2993 RMK AO2 SLP134 T02280211
KLIT 210553Z 16003KT 9SM CLR 23/21 A2992 RMK AO2 SLP130 T02330211 10294 20233 403280194 50003
KLIT 210453Z 17005KT 10SM CLR 24/21 A2992 RMK AO2 SLP130 T02390211
KLIT 210353Z 17006KT 10SM CLR 24/21 A2992 RMK AO2 SLP131 T02440211
KLIT 210253Z 17007KT 10SM CLR 25/21 A2991 RMK AO2 SLP127 T02500211 51018
KLIT 210153Z 17005KT 10SM CLR 26/21 A2989 RMK AO2 SLP122 T02560211
KLIT 210053Z 15005KT 10SM FEW150 27/21 A2987 RMK AO2 SLP116 T02670206
KLIT 202353Z 15006KT 10SM FEW050 FEW150 29/21 A2985 RMK AO2 SLP108 T02940206 10328 20294 56004
KLIT 202253Z 16007KT 10SM FEW046 31/21 A2986 RMK AO2 SLP110 T03110206
KLIT 202153Z 18005KT 10SM FEW050 32/20 A2985 RMK AO2 SLP108 T03170200
KLIT 202053Z 21007KT 10SM SCT047 32/20 A2987 RMK AO2 SLP113 T03220200 56019